Terminal Aerodrome Forecast
Issued by NWS

Home | Current Version | Previous Version | Text Only | Print | Product List | Glossary On
Versions: 1 2 3 4 5 6 7 8 9 10 11 12 13 14 15 16 17 18 19 20 21
777
FTUS41 KGYX 231459 AAC
TAFRKD
TAF AMD
KRKD 231459Z 2315/2412 20006KT P6SM BKN025 BKN250
      TEMPO 2315/2317 OVC003
      AMD LTD TO CLD VIS AND WIND=

USA.gov is the U.S. government's official web portal to all federal, state and local government web resources and services.